sensor_id;sensor_type;location;lat;lon;timestamp;pressure;altitude;pressure_sealevel;temperature;humidity
64066;BME280;50318;54.760;9.408;2022-09-14T00:00:27;100214.78;;;19.79;61.76
64066;BME280;50318;54.760;9.408;2022-09-14T00:02:53;100208.78;;;19.75;62.06
64066;BME280;50318;54.760;9.408;2022-09-14T00:05:20;100218.03;;;19.83;62.05
64066;BME280;50318;54.760;9.408;2022-09-14T00:07:45;100219.31;;;19.82;61.04
64066;BME280;50318;54.760;9.408;2022-09-14T00:10:11;100220.81;;;19.83;61.81
64066;BME280;50318;54.760;9.408;2022-09-14T00:12:37;100212.25;;;19.81;62.19
64066;BME280;50318;54.760;9.408;2022-09-14T00:15:03;100201.31;;;19.83;61.59
64066;BME280;50318;54.760;9.408;2022-09-14T00:17:31;100203.66;;;19.79;62.55
64066;BME280;50318;54.760;9.408;2022-09-14T00:19:57;100211.41;;;19.86;62.44
64066;BME280;50318;54.760;9.408;2022-09-14T00:22:26;100200.06;;;19.84;62.54
64066;BME280;50318;54.760;9.408;2022-09-14T00:24:52;100201.56;;;19.85;61.33
64066;BME280;50318;54.760;9.408;2022-09-14T00:27:17;100206.38;;;19.84;60.98
64066;BME280;50318;54.760;9.408;2022-09-14T00:29:43;100198.84;;;19.79;61.66
64066;BME280;50318;54.760;9.408;2022-09-14T00:32:09;100199.59;;;19.80;61.72
64066;BME280;50318;54.760;9.408;2022-09-14T00:34:34;100201.09;;;19.81;60.96
64066;BME280;50318;54.760;9.408;2022-09-14T00:37:00;100198.84;;;19.79;60.66
64066;BME280;50318;54.760;9.408;2022-09-14T00:39:26;100201.41;;;19.77;61.26
64066;BME280;50318;54.760;9.408;2022-09-14T00:41:53;100182.31;;;19.68;60.32
64066;BME280;50318;54.760;9.408;2022-09-14T00:46:47;100191.63;;;19.71;60.61
64066;BME280;50318;54.760;9.408;2022-09-14T00:49:29;100190.13;;;19.70;59.70
64066;BME280;50318;54.760;9.408;2022-09-14T00:52:24;100176.56;;;19.60;59.69
64066;BME280;50318;54.760;9.408;2022-09-14T00:54:57;100178.06;;;19.61;59.13
64066;BME280;50318;54.760;9.408;2022-09-14T00:57:27;100179.09;;;19.64;59.59
64066;BME280;50318;54.760;9.408;2022-09-14T00:59:53;100177.06;;;19.65;60.14
64066;BME280;50318;54.760;9.408;2022-09-14T01:02:22;100173.25;;;19.62;58.67
64066;BME280;50318;54.760;9.408;2022-09-14T01:04:48;100171.00;;;19.60;60.01
64066;BME280;50318;54.760;9.408;2022-09-14T01:10:18;100173.53;;;19.64;59.80
64066;BME280;50318;54.760;9.408;2022-09-14T01:15:46;100169.97;;;19.63;58.92
64066;BME280;50318;54.760;9.408;2022-09-14T01:18:40;100164.91;;;19.62;57.77
64066;BME280;50318;54.760;9.408;2022-09-14T01:21:32;100169.22;;;19.63;58.36
64066;BME280;50318;54.760;9.408;2022-09-14T01:24:24;100162.38;;;19.64;59.27
64066;BME280;50318;54.760;9.408;2022-09-14T01:32:07;100157.81;;;19.67;59.70
64066;BME280;50318;54.760;9.408;2022-09-14T01:37:36;100152.50;;;19.63;58.48
64066;BME280;50318;54.760;9.408;2022-09-14T01:40:09;100153.03;;;19.61;56.58
64066;BME280;50318;54.760;9.408;2022-09-14T01:42:39;100150.78;;;19.60;57.18
64066;BME280;50318;54.760;9.408;2022-09-14T01:45:10;100145.31;;;19.54;58.59
64066;BME280;50318;54.760;9.408;2022-09-14T01:47:44;100150.03;;;19.59;58.94
64066;BME280;50318;54.760;9.408;2022-09-14T01:53:34;100153.56;;;19.60;59.58
64066;BME280;50318;54.760;9.408;2022-09-14T01:56:16;100150.56;;;19.58;59.62
64066;BME280;50318;54.760;9.408;2022-09-14T02:01:39;100152.28;;;19.61;59.42
64066;BME280;50318;54.760;9.408;2022-09-14T02:04:09;100150.25;;;19.61;58.98
64066;BME280;50318;54.760;9.408;2022-09-14T02:06:37;100151.75;;;19.62;59.89
64066;BME280;50318;54.760;9.408;2022-09-14T02:09:05;100143.28;;;19.55;58.94
64066;BME280;50318;54.760;9.408;2022-09-14T02:11:32;100151.53;;;19.60;59.52
64066;BME280;50318;54.760;9.408;2022-09-14T02:13:58;100154.31;;;19.60;58.87
64066;BME280;50318;54.760;9.408;2022-09-14T02:16:47;100148.75;;;19.60;60.48
64066;BME280;50318;54.760;9.408;2022-09-14T02:19:13;100151.53;;;19.60;59.83
64066;BME280;50318;54.760;9.408;2022-09-14T02:21:39;100150.25;;;19.61;59.85
64066;BME280;50318;54.760;9.408;2022-09-14T02:24:08;100147.47;;;19.61;59.24
64066;BME280;50318;54.760;9.408;2022-09-14T02:26:35;100148.75;;;19.60;59.77
64066;BME280;50318;54.760;9.408;2022-09-14T02:29:25;100138.91;;;19.59;59.12
64066;BME280;50318;54.760;9.408;2022-09-14T02:31:57;100146.50;;;19.59;59.48
64066;BME280;50318;54.760;9.408;2022-09-14T02:47:26;100141.78;;;19.54;60.36
64066;BME280;50318;54.760;9.408;2022-09-14T02:55:14;100135.84;;;19.39;60.39
64066;BME280;50318;54.760;9.408;2022-09-14T03:00:29;100135.09;;;19.38;60.30
64066;BME280;50318;54.760;9.408;2022-09-14T03:02:55;100124.59;;;19.31;59.64
64066;BME280;50318;54.760;9.408;2022-09-14T03:05:21;100134.56;;;19.40;60.65
64066;BME280;50318;54.760;9.408;2022-09-14T03:07:59;100119.69;;;19.37;60.49
64066;BME280;50318;54.760;9.408;2022-09-14T03:10:26;100132.81;;;19.42;60.04
64066;BME280;50318;54.760;9.408;2022-09-14T03:12:52;100125.03;;;19.35;60.10
64066;BME280;50318;54.760;9.408;2022-09-14T03:15:18;100127.25;;;19.42;60.26
64066;BME280;50318;54.760;9.408;2022-09-14T03:17:45;100119.91;;;19.39;59.79
64066;BME280;50318;54.760;9.408;2022-09-14T03:20:16;100108.78;;;19.39;60.40
64066;BME280;50318;54.760;9.408;2022-09-14T03:22:45;100109.50;;;19.45;60.52
64066;BME280;50318;54.760;9.408;2022-09-14T03:25:11;100109.50;;;19.45;60.84
64066;BME280;50318;54.760;9.408;2022-09-14T03:27:37;100111.31;;;19.43;61.08
64066;BME280;50318;54.760;9.408;2022-09-14T03:30:15;100111.97;;;19.49;61.44
64066;BME280;50318;54.760;9.408;2022-09-14T03:32:41;100106.19;;;19.47;61.79
64066;BME280;50318;54.760;9.408;2022-09-14T03:35:10;100109.63;;;19.53;61.50
64066;BME280;50318;54.760;9.408;2022-09-14T03:37:39;100088.75;;;19.46;60.93
64066;BME280;50318;54.760;9.408;2022-09-14T03:40:09;100092.94;;;19.53;60.92
64066;BME280;50318;54.760;9.408;2022-09-14T03:42:43;100090.69;;;19.51;61.89
64066;BME280;50318;54.760;9.408;2022-09-14T03:45:10;100092.81;;;19.45;61.92
64066;BME280;50318;54.760;9.408;2022-09-14T03:47:39;100097.53;;;19.50;61.37
64066;BME280;50318;54.760;9.408;2022-09-14T03:50:18;100092.06;;;19.45;61.85
64066;BME280;50318;54.760;9.408;2022-09-14T03:52:44;100092.38;;;19.41;61.54
64066;BME280;50318;54.760;9.408;2022-09-14T03:55:10;100096.88;;;19.44;61.83
64066;BME280;50318;54.760;9.408;2022-09-14T03:57:36;100089.81;;;19.43;61.23
64066;BME280;50318;54.760;9.408;2022-09-14T04:00:03;100079.66;;;19.46;61.70
64066;BME280;50318;54.760;9.408;2022-09-14T04:02:58;100083.75;;;19.39;61.71
64066;BME280;50318;54.760;9.408;2022-09-14T04:05:24;100086.06;;;19.41;60.79
64066;BME280;50318;54.760;9.408;2022-09-14T04:07:50;100093.56;;;19.46;60.57
64066;BME280;50318;54.760;9.408;2022-09-14T04:10:15;100090.09;;;19.40;60.01
64066;BME280;50318;54.760;9.408;2022-09-14T04:12:41;100086.09;;;19.35;60.20
64066;BME280;50318;54.760;9.408;2022-09-14T04:15:07;100078.91;;;19.26;59.98
64066;BME280;50318;54.760;9.408;2022-09-14T04:17:33;100083.63;;;19.31;60.19
64066;BME280;50318;54.760;9.408;2022-09-14T04:19:59;100080.84;;;19.31;59.82
64066;BME280;50318;54.760;9.408;2022-09-14T04:22:24;100085.88;;;19.33;60.29
64066;BME280;50318;54.760;9.408;2022-09-14T04:24:50;100084.81;;;19.36;60.43
64066;BME280;50318;54.760;9.408;2022-09-14T04:27:17;100077.97;;;19.37;61.21
64066;BME280;50318;54.760;9.408;2022-09-14T04:29:43;100075.19;;;19.37;60.71
64066;BME280;50318;54.760;9.408;2022-09-14T04:32:35;100076.19;;;19.40;60.74
64066;BME280;50318;54.760;9.408;2022-09-14T04:35:01;100079.72;;;19.40;60.88
64066;BME280;50318;54.760;9.408;2022-09-14T04:37:29;100066.41;;;19.33;61.24
64066;BME280;50318;54.760;9.408;2022-09-14T04:39:56;100077.72;;;19.41;61.65
64066;BME280;50318;54.760;9.408;2022-09-14T04:42:21;100069.88;;;19.39;60.72
64066;BME280;50318;54.760;9.408;2022-09-14T04:44:47;100069.59;;;19.43;60.72
64066;BME280;50318;54.760;9.408;2022-09-14T04:47:12;100077.19;;;19.42;60.89
64066;BME280;50318;54.760;9.408;2022-09-14T04:49:38;100065.13;;;19.34;60.42
64066;BME280;50318;54.760;9.408;2022-09-14T04:52:04;100072.66;;;19.39;59.61
64066;BME280;50318;54.760;9.408;2022-09-14T04:54:29;100055.06;;;19.31;59.84
64066;BME280;50318;54.760;9.408;2022-09-14T04:56:55;100068.13;;;19.36;58.89
64066;BME280;50318;54.760;9.408;2022-09-14T04:59:20;100062.34;;;19.34;59.88
64066;BME280;50318;54.760;9.408;2022-09-14T05:02:12;100073.91;;;19.38;59.00
64066;BME280;50318;54.760;9.408;2022-09-14T05:04:37;100060.63;;;19.31;59.27
64066;BME280;50318;54.760;9.408;2022-09-14T05:07:03;100065.13;;;19.34;59.87
64066;BME280;50318;54.760;9.408;2022-09-14T05:09:29;100073.25;;;19.32;60.53
64066;BME280;50318;54.760;9.408;2022-09-14T05:11:54;100069.50;;;19.29;61.34
64066;BME280;50318;54.760;9.408;2022-09-14T05:14:20;100071.44;;;19.35;61.42
64066;BME280;50318;54.760;9.408;2022-09-14T05:16:45;100061.69;;;19.28;60.94
64066;BME280;50318;54.760;9.408;2022-09-14T05:19:16;100056.66;;;19.26;60.01
64066;BME280;50318;54.760;9.408;2022-09-14T05:21:43;100058.59;;;19.31;60.98
64066;BME280;50318;54.760;9.408;2022-09-14T05:24:16;100066.41;;;19.33;59.75
64066;BME280;50318;54.760;9.408;2022-09-14T05:26:43;100060.09;;;19.32;60.79
64066;BME280;50318;54.760;9.408;2022-09-14T05:29:12;100060.41;;;19.29;61.36
64066;BME280;50318;54.760;9.408;2022-09-14T05:31:38;100047.34;;;19.24;59.27
64066;BME280;50318;54.760;9.408;2022-09-14T05:34:03;100052.81;;;19.29;60.38
64066;BME280;50318;54.760;9.408;2022-09-14T05:36:53;100057.09;;;19.30;61.31
64066;BME280;50318;54.760;9.408;2022-09-14T05:39:19;100067.09;;;19.39;60.85
64066;BME280;50318;54.760;9.408;2022-09-14T05:41:48;100070.13;;;19.41;60.39
64066;BME280;50318;54.760;9.408;2022-09-14T05:44:16;100067.34;;;19.41;60.80
64066;BME280;50318;54.760;9.408;2022-09-14T05:46:42;100057.00;;;19.36;61.32
64066;BME280;50318;54.760;9.408;2022-09-14T05:49:07;100065.53;;;19.44;61.03
64066;BME280;50318;54.760;9.408;2022-09-14T05:51:33;100062.75;;;19.44;61.50
64066;BME280;50318;54.760;9.408;2022-09-14T05:53:59;100073.78;;;19.49;61.04
64066;BME280;50318;54.760;9.408;2022-09-14T05:56:27;100067.47;;;19.49;60.84
64066;BME280;50318;54.760;9.408;2022-09-14T05:58:53;100071.91;;;19.57;61.50
64066;BME280;50318;54.760;9.408;2022-09-14T06:01:24;100071.63;;;19.61;61.57
64066;BME280;50318;54.760;9.408;2022-09-14T06:03:56;100055.00;;;19.55;61.62
64066;BME280;50318;54.760;9.408;2022-09-14T06:06:22;100070.28;;;19.68;61.60
64066;BME280;50318;54.760;9.408;2022-09-14T06:08:50;100074.78;;;19.71;61.41
64066;BME280;50318;54.760;9.408;2022-09-14T06:11:19;100058.94;;;19.66;61.25
64066;BME280;50318;54.760;9.408;2022-09-14T06:13:58;100064.72;;;19.68;61.56
64066;BME280;50318;54.760;9.408;2022-09-14T06:16:26;100066.97;;;19.69;61.56
64066;BME280;50318;54.760;9.408;2022-09-14T06:18:56;100051.84;;;19.65;61.78
64066;BME280;50318;54.760;9.408;2022-09-14T06:21:22;100053.81;;;19.70;61.32
64066;BME280;50318;54.760;9.408;2022-09-14T06:23:48;100066.56;;;19.78;61.68
64066;BME280;50318;54.760;9.408;2022-09-14T06:26:14;100067.53;;;19.81;61.69
64066;BME280;50318;54.760;9.408;2022-09-14T06:28:43;100076.03;;;19.88;61.06
64066;BME280;50318;54.760;9.408;2022-09-14T06:31:13;100071.75;;;19.87;60.49
64066;BME280;50318;54.760;9.408;2022-09-14T06:33:46;100072.25;;;19.86;60.68
64066;BME280;50318;54.760;9.408;2022-09-14T06:36:18;100071.06;;;19.81;60.10
64066;BME280;50318;54.760;9.408;2022-09-14T06:38:45;100074.38;;;19.80;60.38
64066;BME280;50318;54.760;9.408;2022-09-14T06:41:13;100073.84;;;19.81;59.90
64066;BME280;50318;54.760;9.408;2022-09-14T06:43:40;100070.53;;;19.83;60.88
64066;BME280;50318;54.760;9.408;2022-09-14T06:46:21;100067.22;;;19.84;59.96
64066;BME280;50318;54.760;9.408;2022-09-14T06:49:12;100045.06;;;19.79;60.11
64066;BME280;50318;54.760;9.408;2022-09-14T06:51:43;100054.81;;;19.85;59.10
64066;BME280;50318;54.760;9.408;2022-09-14T06:54:10;100062.13;;;19.88;58.86
64066;BME280;50318;54.760;9.408;2022-09-14T06:56:39;100062.88;;;19.89;58.77
64066;BME280;50318;54.760;9.408;2022-09-14T06:59:07;100068.72;;;19.85;58.96
64066;BME280;50318;54.760;9.408;2022-09-14T07:01:33;100077.81;;;19.86;59.14
64066;BME280;50318;54.760;9.408;2022-09-14T07:03:59;100083.91;;;19.84;59.82
64066;BME280;50318;54.760;9.408;2022-09-14T07:06:36;100081.66;;;19.83;59.28
64066;BME280;50318;54.760;9.408;2022-09-14T07:09:03;100071.81;;;19.82;58.94
64066;BME280;50318;54.760;9.408;2022-09-14T07:11:30;100082.09;;;19.87;59.94
64066;BME280;50318;54.760;9.408;2022-09-14T07:14:00;100080.00;;;19.93;58.82
64066;BME280;50318;54.760;9.408;2022-09-14T07:16:27;100089.75;;;20.00;58.68
64066;BME280;50318;54.760;9.408;2022-09-14T07:19:02;100088.69;;;20.03;59.27
64066;BME280;50318;54.760;9.408;2022-09-14T07:21:29;100076.16;;;19.96;59.32
64066;BME280;50318;54.760;9.408;2022-09-14T07:23:55;100082.38;;;20.02;57.92
64066;BME280;50318;54.760;9.408;2022-09-14T07:26:25;100088.31;;;20.12;58.95
64066;BME280;50318;54.760;9.408;2022-09-14T07:28:56;100084.16;;;20.18;58.47
64066;BME280;50318;54.760;9.408;2022-09-14T07:31:24;100085.25;;;20.29;58.76
64066;BME280;50318;54.760;9.408;2022-09-14T07:33:57;100081.84;;;20.36;58.91
64066;BME280;50318;54.760;9.408;2022-09-14T07:36:25;100081.53;;;20.39;58.47
64066;BME280;50318;54.760;9.408;2022-09-14T07:38:52;100070.31;;;20.45;57.11
64066;BME280;50318;54.760;9.408;2022-09-14T07:41:22;100076.94;;;20.55;57.54
64066;BME280;50318;54.760;9.408;2022-09-14T07:43:52;100078.66;;;20.58;57.44
64066;BME280;50318;54.760;9.408;2022-09-14T07:46:19;100075.59;;;20.62;57.53
64066;BME280;50318;54.760;9.408;2022-09-14T07:48:46;100082.00;;;20.70;57.45
64066;BME280;50318;54.760;9.408;2022-09-14T07:51:12;100061.00;;;20.69;56.19
64066;BME280;50318;54.760;9.408;2022-09-14T07:53:40;100074.28;;;20.76;56.93
64066;BME280;50318;54.760;9.408;2022-09-14T07:56:09;100077.75;;;20.82;57.14
64066;BME280;50318;54.760;9.408;2022-09-14T07:58:36;100067.97;;;20.75;56.68
64066;BME280;50318;54.760;9.408;2022-09-14T08:01:05;100079.00;;;20.81;56.15
64066;BME280;50318;54.760;9.408;2022-09-14T08:03:33;100080.19;;;20.86;58.14
64066;BME280;50318;54.760;9.408;2022-09-14T08:06:03;100069.78;;;20.86;57.62
64066;BME280;50318;54.760;9.408;2022-09-14T08:08:33;100080.28;;;20.93;56.54
64066;BME280;50318;54.760;9.408;2022-09-14T08:11:12;100072.03;;;21.01;56.25
64066;BME280;50318;54.760;9.408;2022-09-14T08:13:40;100077.81;;;21.03;55.66
64066;BME280;50318;54.760;9.408;2022-09-14T08:16:06;100071.28;;;21.00;55.90
64066;BME280;50318;54.760;9.408;2022-09-14T08:18:33;100073.31;;;21.13;57.04
64066;BME280;50318;54.760;9.408;2022-09-14T08:21:08;100079.72;;;21.21;57.54
64066;BME280;50318;54.760;9.408;2022-09-14T08:23:35;100072.22;;;21.29;55.86
64066;BME280;50318;54.760;9.408;2022-09-14T08:26:14;100069.88;;;21.33;55.33
64066;BME280;50318;54.760;9.408;2022-09-14T08:28:40;100068.13;;;21.43;56.38
64066;BME280;50318;54.760;9.408;2022-09-14T08:31:11;100072.28;;;21.50;55.19
64066;BME280;50318;54.760;9.408;2022-09-14T08:33:43;100065.31;;;21.57;54.02
64066;BME280;50318;54.760;9.408;2022-09-14T08:36:14;100063.59;;;21.54;53.95
64066;BME280;50318;54.760;9.408;2022-09-14T08:38:40;100063.38;;;21.52;53.32
64066;BME280;50318;54.760;9.408;2022-09-14T08:41:23;100065.94;;;21.50;53.40
64066;BME280;50318;54.760;9.408;2022-09-14T08:46:40;100056.63;;;21.47;53.44
64066;BME280;50318;54.760;9.408;2022-09-14T08:51:43;100061.44;;;21.47;53.08
64066;BME280;50318;54.760;9.408;2022-09-14T08:54:09;100051.16;;;21.41;51.50
64066;BME280;50318;54.760;9.408;2022-09-14T08:56:39;100055.44;;;21.56;53.60
64066;BME280;50318;54.760;9.408;2022-09-14T09:01:56;100052.13;;;21.78;53.40
64066;BME280;50318;54.760;9.408;2022-09-14T09:04:31;100046.53;;;21.78;52.68
64066;BME280;50318;54.760;9.408;2022-09-14T09:07:31;100040.97;;;21.78;51.31
64066;BME280;50318;54.760;9.408;2022-09-14T09:09:59;100043.88;;;21.72;50.49
64066;BME280;50318;54.760;9.408;2022-09-14T09:12:48;100052.97;;;21.73;48.96
64066;BME280;50318;54.760;9.408;2022-09-14T09:15:25;100060.19;;;21.68;50.98
64066;BME280;50318;54.760;9.408;2022-09-14T09:18:15;100065.38;;;21.64;53.48
64066;BME280;50318;54.760;9.408;2022-09-14T09:20:50;100065.50;;;21.59;52.18
64066;BME280;50318;54.760;9.408;2022-09-14T09:23:19;100064.84;;;21.53;52.99
64066;BME280;50318;54.760;9.408;2022-09-14T09:28:30;100063.59;;;21.54;53.20
64066;BME280;50318;54.760;9.408;2022-09-14T09:31:01;100070.22;;;21.64;53.76
64066;BME280;50318;54.760;9.408;2022-09-14T09:33:48;100074.22;;;21.76;52.54
64066;BME280;50318;54.760;9.408;2022-09-14T09:36:19;100068.34;;;21.80;50.79
64066;BME280;50318;54.760;9.408;2022-09-14T09:38:44;100053.63;;;21.79;51.29
64066;BME280;50318;54.760;9.408;2022-09-14T09:46:21;100057.16;;;22.00;52.50
64066;BME280;50318;54.760;9.408;2022-09-14T09:48:47;100054.16;;;21.98;51.51
64066;BME280;50318;54.760;9.408;2022-09-14T09:53:56;100052.09;;;21.99;50.81
64066;BME280;50318;54.760;9.408;2022-09-14T09:56:38;100063.38;;;22.07;51.72
64066;BME280;50318;54.760;9.408;2022-09-14T09:59:42;100060.47;;;21.99;50.14
64066;BME280;50318;54.760;9.408;2022-09-14T10:02:31;100057.22;;;21.87;49.48
64066;BME280;50318;54.760;9.408;2022-09-14T10:10:11;100047.06;;;21.56;49.06
64066;BME280;50318;54.760;9.408;2022-09-14T10:12:39;100051.47;;;21.51;51.05
64066;BME280;50318;54.760;9.408;2022-09-14T10:15:17;100053.38;;;21.56;50.05
64066;BME280;50318;54.760;9.408;2022-09-14T10:20:29;100050.09;;;21.79;49.58
64066;BME280;50318;54.760;9.408;2022-09-14T10:22:55;100043.97;;;21.80;49.14
64066;BME280;50318;54.760;9.408;2022-09-14T10:25:25;100041.56;;;21.84;47.29
64066;BME280;50318;54.760;9.408;2022-09-14T10:30:50;100047.50;;;22.01;49.14
64066;BME280;50318;54.760;9.408;2022-09-14T10:33:18;100057.81;;;22.07;49.25
64066;BME280;50318;54.760;9.408;2022-09-14T10:36:13;100056.16;;;22.11;49.67
64066;BME280;50318;54.760;9.408;2022-09-14T10:52:46;100036.69;;;22.47;50.32
64066;BME280;50318;54.760;9.408;2022-09-14T11:06:10;100030.69;;;22.43;49.27
64066;BME280;50318;54.760;9.408;2022-09-14T11:08:45;100032.66;;;22.56;49.15
64066;BME280;50318;54.760;9.408;2022-09-14T11:22:04;100033.13;;;22.47;48.94
64066;BME280;50318;54.760;9.408;2022-09-14T11:25:16;100028.44;;;22.42;51.10
64066;BME280;50318;54.760;9.408;2022-09-14T11:27:47;100038.28;;;22.35;50.53
64066;BME280;50318;54.760;9.408;2022-09-14T11:30:21;100037.13;;;22.30;50.66
64066;BME280;50318;54.760;9.408;2022-09-14T11:32:52;100032.78;;;22.22;50.43
64066;BME280;50318;54.760;9.408;2022-09-14T11:35:34;100027.88;;;22.15;49.21
64066;BME280;50318;54.760;9.408;2022-09-14T11:38:07;100032.66;;;22.07;49.71
64066;BME280;50318;54.760;9.408;2022-09-14T11:40:51;100030.63;;;22.07;51.13
64066;BME280;50318;54.760;9.408;2022-09-14T11:43:23;100034.38;;;22.10;50.43
64066;BME280;50318;54.760;9.408;2022-09-14T11:46:06;100022.31;;;22.15;52.69
64066;BME280;50318;54.760;9.408;2022-09-14T11:48:40;100027.63;;;22.26;51.11
64066;BME280;50318;54.760;9.408;2022-09-14T11:51:12;100033.03;;;22.31;51.52
64066;BME280;50318;54.760;9.408;2022-09-14T11:53:42;100038.84;;;22.33;52.01
64066;BME280;50318;54.760;9.408;2022-09-14T11:59:03;100040.34;;;22.34;51.22
64066;BME280;50318;54.760;9.408;2022-09-14T12:11:45;100045.69;;;21.70;56.94
64066;BME280;50318;54.760;9.408;2022-09-14T12:20:37;100028.53;;;21.66;58.49
64066;BME280;50318;54.760;9.408;2022-09-14T12:40:56;100032.34;;;21.97;57.85
64066;BME280;50318;54.760;9.408;2022-09-14T12:54:02;100026.34;;;22.06;55.24
64066;BME280;50318;54.760;9.408;2022-09-14T13:03:56;100017.94;;;21.85;55.76
64066;BME280;50318;54.760;9.408;2022-09-14T13:06:34;100016.03;;;21.80;55.88
64066;BME280;50318;54.760;9.408;2022-09-14T13:09:03;100026.13;;;21.83;55.95
64066;BME280;50318;54.760;9.408;2022-09-14T13:11:34;100015.50;;;21.82;56.01
64066;BME280;50318;54.760;9.408;2022-09-14T13:14:01;100014.84;;;21.75;55.31
64066;BME280;50318;54.760;9.408;2022-09-14T13:16:46;100010.38;;;21.72;55.91
64066;BME280;50318;54.760;9.408;2022-09-14T13:19:30;100015.19;;;21.72;56.70
64066;BME280;50318;54.760;9.408;2022-09-14T13:22:00;100011.13;;;21.73;56.97
64066;BME280;50318;54.760;9.408;2022-09-14T13:25:04;100008.31;;;21.73;56.36
64066;BME280;50318;54.760;9.408;2022-09-14T13:27:33;100005.63;;;21.81;56.76
64066;BME280;50318;54.760;9.408;2022-09-14T13:30:20;100000.28;;;21.90;55.91
64066;BME280;50318;54.760;9.408;2022-09-14T13:32:49;99995.66;;;21.93;55.77
64066;BME280;50318;54.760;9.408;2022-09-14T13:35:19;99995.31;;;21.96;55.52
64066;BME280;50318;54.760;9.408;2022-09-14T13:38:09;99996.06;;;21.97;56.98
64066;BME280;50318;54.760;9.408;2022-09-14T13:40:38;99998.09;;;21.96;55.79
64066;BME280;50318;54.760;9.408;2022-09-14T13:43:05;99999.19;;;21.93;55.75
64066;BME280;50318;54.760;9.408;2022-09-14T13:45:34;99988.94;;;21.88;56.14
64066;BME280;50318;54.760;9.408;2022-09-14T13:48:03;99996.75;;;21.90;55.62
64066;BME280;50318;54.760;9.408;2022-09-14T13:50:29;99998.06;;;21.89;56.10
64066;BME280;50318;54.760;9.408;2022-09-14T13:52:55;99994.13;;;21.84;55.47
64066;BME280;50318;54.760;9.408;2022-09-14T13:55:39;99994.47;;;21.81;55.72
64066;BME280;50318;54.760;9.408;2022-09-14T14:00:57;99986.44;;;21.77;56.36
64066;BME280;50318;54.760;9.408;2022-09-14T14:08:42;99968.03;;;21.82;56.06
64066;BME280;50318;54.760;9.408;2022-09-14T14:11:07;99973.69;;;21.89;55.95
64066;BME280;50318;54.760;9.408;2022-09-14T14:13:35;99965.09;;;21.87;55.71
64066;BME280;50318;54.760;9.408;2022-09-14T14:16:16;99967.53;;;21.91;55.34
64066;BME280;50318;54.760;9.408;2022-09-14T14:18:56;99959.72;;;21.89;56.00
64066;BME280;50318;54.760;9.408;2022-09-14T14:21:31;99954.34;;;21.91;55.45
64066;BME280;50318;54.760;9.408;2022-09-14T14:26:53;99954.47;;;21.86;54.78
64066;BME280;50318;54.760;9.408;2022-09-14T14:29:34;99946.66;;;21.84;54.91
64066;BME280;50318;54.760;9.408;2022-09-14T14:32:02;99946.47;;;21.82;54.69
64066;BME280;50318;54.760;9.408;2022-09-14T14:34:28;99948.16;;;21.85;53.91
64066;BME280;50318;54.760;9.408;2022-09-14T14:36:54;99948.34;;;21.87;54.75
64066;BME280;50318;54.760;9.408;2022-09-14T14:39:22;99941.28;;;21.86;55.06
64066;BME280;50318;54.760;9.408;2022-09-14T14:42:08;99943.88;;;21.84;54.65
64066;BME280;50318;54.760;9.408;2022-09-14T14:44:37;99935.97;;;21.75;55.30
64066;BME280;50318;54.760;9.408;2022-09-14T14:47:04;99933.03;;;21.81;55.13
64066;BME280;50318;54.760;9.408;2022-09-14T14:49:30;99935.50;;;21.84;55.42
64066;BME280;50318;54.760;9.408;2022-09-14T14:51:55;99939.78;;;21.85;55.87
64066;BME280;50318;54.760;9.408;2022-09-14T14:54:21;99928.59;;;21.85;56.27
64066;BME280;50318;54.760;9.408;2022-09-14T14:56:49;99931.94;;;21.84;56.75
64066;BME280;50318;54.760;9.408;2022-09-14T14:59:35;99917.91;;;21.76;56.49
64066;BME280;50318;54.760;9.408;2022-09-14T15:02:01;99927.03;;;21.76;56.91
64066;BME280;50318;54.760;9.408;2022-09-14T15:04:29;99928.00;;;21.79;56.99
64066;BME280;50318;54.760;9.408;2022-09-14T15:06:54;99926.72;;;21.80;57.40
64066;BME280;50318;54.760;9.408;2022-09-14T15:09:23;99935.22;;;21.74;57.14
64066;BME280;50318;54.760;9.408;2022-09-14T15:12:12;99922.16;;;21.69;57.10
64066;BME280;50318;54.760;9.408;2022-09-14T15:14:38;99923.78;;;21.65;56.99
64066;BME280;50318;54.760;9.408;2022-09-14T15:17:04;99925.44;;;21.60;58.10
64066;BME280;50318;54.760;9.408;2022-09-14T15:19:29;99928.38;;;21.55;57.98
64066;BME280;50318;54.760;9.408;2022-09-14T15:21:55;99920.31;;;21.51;58.97
64066;BME280;50318;54.760;9.408;2022-09-14T15:24:21;99917.66;;;21.45;59.46
64066;BME280;50318;54.760;9.408;2022-09-14T15:26:46;99914.22;;;21.32;58.99
64066;BME280;50318;54.760;9.408;2022-09-14T15:29:12;99918.41;;;21.25;60.55
64066;BME280;50318;54.760;9.408;2022-09-14T15:31:39;99917.56;;;21.17;60.50
64066;BME280;50318;54.760;9.408;2022-09-14T15:34:05;99913.81;;;21.14;60.73
64066;BME280;50318;54.760;9.408;2022-09-14T15:36:34;99902.81;;;21.09;60.67
64066;BME280;50318;54.760;9.408;2022-09-14T15:39:00;99906.69;;;21.06;61.44
64066;BME280;50318;54.760;9.408;2022-09-14T15:41:29;99897.47;;;20.98;60.49
64066;BME280;50318;54.760;9.408;2022-09-14T15:43:54;99899.19;;;21.01;60.72
64066;BME280;50318;54.760;9.408;2022-09-14T15:46:20;99896.19;;;20.99;60.73
64066;BME280;50318;54.760;9.408;2022-09-14T15:48:47;99890.41;;;20.97;60.94
64066;BME280;50318;54.760;9.408;2022-09-14T15:51:12;99893.41;;;20.99;60.33
64066;BME280;50318;54.760;9.408;2022-09-14T15:53:38;99898.44;;;21.00;60.12
64066;BME280;50318;54.760;9.408;2022-09-14T15:56:09;99892.19;;;21.07;60.11
64066;BME280;50318;54.760;9.408;2022-09-14T15:58:35;99893.97;;;21.18;60.67
64066;BME280;50318;54.760;9.408;2022-09-14T16:01:12;99890.44;;;21.18;58.70
64066;BME280;50318;54.760;9.408;2022-09-14T16:03:38;99885.19;;;21.14;59.71
64066;BME280;50318;54.760;9.408;2022-09-14T16:06:11;99889.63;;;21.09;59.95